Time;durP1;ratioP1;P1;durP2;ratioP2;P2;SDS_P1;SDS_P2;PMS_P1;PMS_P2;Temp;Humidity;BMP_temperature;BMP_pressure;BME280_temperature;BME280_humidity;BME280_pressure;Samples;Min_cycle;Max_cycle;Signal;HPM_P1;HPM_P2
2020/12/01 00:00:51;;;;;;;;;;;14.00;78.90;;;;;;2081180;28;1349;-60
2020/12/01 00:02:10;;;;;;;;;;;14.00;78.80;;;;;;2072765;28;731;-60
2020/12/01 00:03:29;;;;;;;;;;;14.00;78.90;;;;;;2077142;28;760;-60
2020/12/01 00:04:49;;;;;;;;;;;14.00;79.00;;;;;;2091216;28;1530;-60
2020/12/01 00:06:08;;;;;;;;;;;14.00;79.00;;;;;;2088916;28;791;-60
2020/12/01 00:07:27;;;;;;;;;;;13.90;79.00;;;;;;2069106;28;743;-60
2020/12/01 00:08:46;;;;;;;;;;;13.90;79.10;;;;;;2081707;28;738;-60
2020/12/01 00:10:06;;;;;;;;;;;13.90;79.60;;;;;;2077420;28;779;-60
2020/12/01 00:11:26;;;;;;;;;;;13.90;79.10;;;;;;2082739;28;1467;-60
2020/12/01 00:12:45;;;;;;;;;;;13.90;79.10;;;;;;2085486;28;719;-60
2020/12/01 00:14:04;;;;;;;;;;;13.90;79.20;;;;;;2077361;28;1902;-60
2020/12/01 00:15:23;;;;;;;;;;;13.90;79.20;;;;;;2082335;28;719;-60
2020/12/01 00:16:46;;;;;;;;;;;13.90;79.30;;;;;;2077548;28;809;-60
2020/12/01 00:18:05;;;;;;;;;;;13.90;79.30;;;;;;2083160;28;728;-59
2020/12/01 00:19:24;;;;;;;;;;;13.90;79.30;;;;;;2077671;28;767;-59
2020/12/01 00:20:43;;;;;;;;;;;13.90;79.30;;;;;;2082447;28;1465;-60
2020/12/01 00:22:02;;;;;;;;;;;13.90;80.00;;;;;;2077504;28;733;-59
2020/12/01 00:23:21;;;;;;;;;;;13.90;79.30;;;;;;2081784;28;767;-60
2020/12/01 00:24:40;;;;;;;;;;;13.90;79.40;;;;;;2077224;28;759;-61
2020/12/01 00:26:00;;;;;;;;;;;13.80;79.20;;;;;;2086038;28;818;-60
2020/12/01 00:27:19;;;;;;;;;;;13.80;79.40;;;;;;2089569;28;794;-60
2020/12/01 00:28:38;;;;;;;;;;;13.80;79.30;;;;;;2089638;28;719;-60
2020/12/01 00:29:58;;;;;;;;;;;13.80;79.30;;;;;;2080664;28;776;-60
2020/12/01 00:31:17;;;;;;;;;;;13.80;79.40;;;;;;2086148;28;1477;-59
2020/12/01 00:32:36;;;;;;;;;;;13.80;79.30;;;;;;2088945;28;791;-60
2020/12/01 00:33:55;;;;;;;;;;;13.80;79.40;;;;;;2084907;28;1914;-60
2020/12/01 00:35:15;;;;;;;;;;;13.80;79.30;;;;;;2088817;28;975;-59
2020/12/01 00:36:35;;;;;;;;;;;13.80;79.40;;;;;;2087063;28;805;-59
2020/12/01 00:37:54;;;;;;;;;;;13.80;79.50;;;;;;2090933;28;797;-60
2020/12/01 00:39:13;;;;;;;;;;;13.80;79.50;;;;;;2091094;28;766;-60
2020/12/01 00:40:32;;;;;;;;;;;13.80;79.50;;;;;;2081730;28;758;-59
2020/12/01 00:41:51;;;;;;;;;;;13.80;80.20;;;;;;2083995;28;757;-59
2020/12/01 00:43:10;;;;;;;;;;;13.80;79.60;;;;;;2078303;28;793;-60
2020/12/01 00:44:30;;;;;;;;;;;13.80;79.60;;;;;;2084072;28;729;-60
2020/12/01 00:45:49;;;;;;;;;;;13.80;79.60;;;;;;2087386;28;788;-60
2020/12/01 00:47:09;;;;;;;;;;;13.70;79.50;;;;;;2086015;28;758;-60
2020/12/01 00:48:28;;;;;;;;;;;13.80;79.90;;;;;;2078865;28;782;-59
2020/12/01 00:49:47;;;;;;;;;;;13.70;79.60;;;;;;2084063;28;725;-59
2020/12/01 00:51:06;;;;;;;;;;;13.80;79.70;;;;;;2073954;28;1383;-60
2020/12/01 00:52:26;;;;;;;;;;;13.80;79.60;;;;;;2072506;28;753;-59
2020/12/01 00:53:45;;;;;;;;;;;13.80;79.60;;;;;;2083085;28;1898;-60
2020/12/01 00:55:06;;;;;;;;;;;13.70;79.70;;;;;;2087017;28;733;-59
2020/12/01 00:56:26;;;;;;;;;;;13.80;79.70;;;;;;2087482;28;720;-60
2020/12/01 00:57:46;;;;;;;;;;;13.70;79.70;;;;;;2078862;28;725;-60
2020/12/01 00:59:06;;;;;;;;;;;13.70;79.80;;;;;;2084016;28;745;-60
2020/12/01 01:00:36;;;;;;;;;;;13.70;79.60;;;;;;2088488;28;1470;-59
2020/12/01 01:02:07;;;;;;;;;;;13.70;79.70;;;;;;2088795;28;758;-60
2020/12/01 01:03:26;;;;;;;;;;;13.70;79.70;;;;;;2079911;28;756;-60
2020/12/01 01:04:46;;;;;;;;;;;13.70;79.80;;;;;;2083723;28;713;-60
2020/12/01 01:06:08;;;;;;;;;;;13.70;79.80;;;;;;2076716;28;1061;-59
2020/12/01 01:07:27;;;;;;;;;;;13.70;79.70;;;;;;2085057;28;829;-58
2020/12/01 01:08:47;;;;;;;;;;;13.70;79.80;;;;;;2083774;28;759;-59
2020/12/01 01:10:06;;;;;;;;;;;13.70;79.80;;;;;;2085924;28;757;-60
2020/12/01 01:11:26;;;;;;;;;;;13.70;79.90;;;;;;2086074;28;1501;-59
2020/12/01 01:12:45;;;;;;;;;;;13.70;79.90;;;;;;2076234;28;751;-60
2020/12/01 01:14:04;;;;;;;;;;;13.60;79.80;;;;;;2075352;28;1975;-58
2020/12/01 01:15:24;;;;;;;;;;;13.60;79.80;;;;;;2086912;28;755;-60
2020/12/01 01:16:43;;;;;;;;;;;13.60;79.70;;;;;;2090236;28;719;-60
2020/12/01 01:18:03;;;;;;;;;;;13.60;80.60;;;;;;2086859;28;963;-59
2020/12/01 01:19:22;;;;;;;;;;;13.60;80.60;;;;;;2086996;28;750;-59
2020/12/01 01:20:41;;;;;;;;;;;13.60;79.80;;;;;;2087150;28;1456;-60
2020/12/01 01:22:00;;;;;;;;;;;13.60;79.80;;;;;;2086747;28;757;-60
2020/12/01 01:23:19;;;;;;;;;;;13.60;79.90;;;;;;2086125;28;745;-59
2020/12/01 01:24:39;;;;;;;;;;;13.60;80.00;;;;;;2090521;28;767;-59
2020/12/01 01:25:58;;;;;;;;;;;13.60;79.90;;;;;;2089896;28;765;-60
2020/12/01 01:27:17;;;;;;;;;;;13.60;79.90;;;;;;2086725;28;781;-59
2020/12/01 01:28:37;;;;;;;;;;;13.60;79.90;;;;;;2090485;28;739;-60
2020/12/01 01:29:56;;;;;;;;;;;13.60;80.00;;;;;;2090113;28;755;-59
2020/12/01 01:31:18;;;;;;;;;;;13.60;80.00;;;;;;2075326;28;1417;-60
2020/12/01 01:32:37;;;;;;;;;;;13.60;80.00;;;;;;2070607;28;750;-59
2020/12/01 01:33:57;;;;;;;;;;;13.60;80.70;;;;;;2078282;28;1979;-59
2020/12/01 01:35:16;;;;;;;;;;;13.60;80.00;;;;;;2081796;28;784;-59
2020/12/01 01:36:35;;;;;;;;;;;13.60;79.80;;;;;;2078547;28;768;-59
2020/12/01 01:37:54;;;;;;;;;;;13.60;80.60;;;;;;2078552;28;733;-59
2020/12/01 01:39:13;;;;;;;;;;;13.60;80.00;;;;;;2081916;28;717;-60
2020/12/01 01:40:33;;;;;;;;;;;13.50;79.90;;;;;;2081958;28;783;-60
2020/12/01 01:41:52;;;;;;;;;;;13.50;80.00;;;;;;2081579;28;709;-59
2020/12/01 01:43:11;;;;;;;;;;;13.60;80.00;;;;;;2081509;28;738;-60
2020/12/01 01:44:30;;;;;;;;;;;13.50;79.90;;;;;;2073521;28;722;-60
2020/12/01 01:45:49;;;;;;;;;;;13.50;80.00;;;;;;2083652;28;777;-59
2020/12/01 01:47:14;;;;;;;;;;;13.50;80.70;;;;;;2065123;28;711;-59
2020/12/01 01:48:33;;;;;;;;;;;13.50;79.90;;;;;;2077378;28;791;-59
2020/12/01 01:49:56;;;;;;;;;;;13.50;80.00;;;;;;2073489;28;780;-59
2020/12/01 01:51:16;;;;;;;;;;;13.50;80.00;;;;;;2076182;28;1457;-59
2020/12/01 01:52:36;;;;;;;;;;;13.50;80.00;;;;;;2086763;28;1060;-60
2020/12/01 01:53:55;;;;;;;;;;;13.50;80.00;;;;;;2072770;28;1906;-59
2020/12/01 01:55:15;;;;;;;;;;;13.50;79.90;;;;;;2078762;28;730;-60
2020/12/01 01:56:35;;;;;;;;;;;13.50;80.60;;;;;;2073503;28;794;-60
2020/12/01 01:58:03;;;;;;;;;;;13.50;80.70;;;;;;2075260;28;779;-59
2020/12/01 01:59:23;;;;;;;;;;;13.50;79.90;;;;;;2079614;28;739;-59
2020/12/01 02:00:57;;;;;;;;;;;13.50;79.90;;;;;;2078449;28;1385;-59
2020/12/01 02:02:16;;;;;;;;;;;13.50;79.90;;;;;;2088473;28;733;-59
2020/12/01 02:03:39;;;;;;;;;;;13.50;80.60;;;;;;2080821;28;804;-59
2020/12/01 02:04:58;;;;;;;;;;;13.50;79.90;;;;;;2078558;28;698;-60
2020/12/01 02:06:19;;;;;;;;;;;13.40;79.80;;;;;;2086317;28;739;-60
2020/12/01 02:07:38;;;;;;;;;;;13.40;79.80;;;;;;2073106;28;727;-57
2020/12/01 02:09:04;;;;;;;;;;;13.50;80.00;;;;;;2077769;28;1309;-60
2020/12/01 02:10:23;;;;;;;;;;;13.50;80.00;;;;;;2079202;28;777;-60
2020/12/01 02:11:43;;;;;;;;;;;13.50;80.00;;;;;;2083277;28;727;-61
2020/12/01 02:13:02;;;;;;;;;;;13.40;79.80;;;;;;2086298;28;711;-60
2020/12/01 02:14:28;;;;;;;;;;;13.40;79.90;;;;;;2086227;28;1914;-60
2020/12/01 02:15:47;;;;;;;;;;;13.40;79.80;;;;;;2087367;28;745;-59
2020/12/01 02:17:14;;;;;;;;;;;13.40;79.70;;;;;;2086713;28;742;-60
2020/12/01 02:18:36;;;;;;;;;;;13.40;79.90;;;;;;2087226;28;724;-60
2020/12/01 02:19:56;;;;;;;;;;;13.40;79.80;;;;;;2089993;28;718;-60
2020/12/01 02:21:26;;;;;;;;;;;13.40;79.90;;;;;;2081549;28;1337;-60
2020/12/01 02:22:47;;;;;;;;;;;13.40;79.90;;;;;;2078123;28;746;-60
2020/12/01 02:24:10;;;;;;;;;;;13.40;79.90;;;;;;2083266;28;722;-59
2020/12/01 02:25:29;;;;;;;;;;;13.40;79.90;;;;;;2087176;28;751;-60
2020/12/01 02:26:50;;;;;;;;;;;13.40;79.90;;;;;;2090020;28;790;-60
2020/12/01 02:28:09;;;;;;;;;;;13.40;80.00;;;;;;2089828;28;744;-60
2020/12/01 02:29:30;;;;;;;;;;;13.40;80.00;;;;;;2090179;28;1053;-60
2020/12/01 02:30:49;;;;;;;;;;;13.40;80.00;;;;;;2089641;28;1412;-60
2020/12/01 02:32:08;;;;;;;;;;;13.30;79.90;;;;;;2084476;28;763;-59
2020/12/01 02:33:28;;;;;;;;;;;13.30;80.10;;;;;;2084447;28;761;-60
2020/12/01 02:34:47;;;;;;;;;;;13.40;80.10;;;;;;2082824;28;807;-60
2020/12/01 02:36:06;;;;;;;;;;;13.40;80.20;;;;;;2084614;28;766;-60
2020/12/01 02:37:26;;;;;;;;;;;13.30;79.90;;;;;;2068401;28;734;-60
2020/12/01 02:38:45;;;;;;;;;;;13.40;80.80;;;;;;2068483;28;765;-60
2020/12/01 02:40:06;;;;;;;;;;;13.30;80.70;;;;;;2079380;28;783;-60
2020/12/01 02:41:25;;;;;;;;;;;13.30;79.90;;;;;;2072761;28;1440;-60
2020/12/01 02:42:44;;;;;;;;;;;13.30;80.00;;;;;;2070777;28;838;-60
2020/12/01 02:44:03;;;;;;;;;;;13.30;80.10;;;;;;2082527;28;807;-60
2020/12/01 02:45:23;;;;;;;;;;;13.30;80.10;;;;;;2072564;28;793;-59
2020/12/01 02:46:42;;;;;;;;;;;13.30;80.10;;;;;;2081923;28;759;-60
2020/12/01 02:48:01;;;;;;;;;;;13.30;80.10;;;;;;2085645;28;785;-58
2020/12/01 02:49:21;;;;;;;;;;;13.30;80.10;;;;;;2084208;28;819;-58
2020/12/01 02:50:40;;;;;;;;;;;13.30;80.10;;;;;;2086278;28;1415;-59
2020/12/01 02:51:59;;;;;;;;;;;13.30;80.20;;;;;;2089435;28;724;-60
2020/12/01 02:53:19;;;;;;;;;;;13.30;80.20;;;;;;2077116;28;789;-59
2020/12/01 02:54:38;;;;;;;;;;;13.30;80.90;;;;;;2074624;28;1923;-60
2020/12/01 02:55:57;;;;;;;;;;;13.30;81.00;;;;;;2074787;28;726;-60
2020/12/01 02:57:17;;;;;;;;;;;13.30;80.20;;;;;;2083143;28;721;-59
2020/12/01 02:58:36;;;;;;;;;;;13.30;80.20;;;;;;2081917;28;770;-59
2020/12/01 02:59:55;;;;;;;;;;;13.30;80.10;;;;;;2084697;28;847;-60
2020/12/01 03:01:15;;;;;;;;;;;13.30;80.20;;;;;;2077627;28;1435;-59
2020/12/01 03:02:34;;;;;;;;;;;13.30;80.50;;;;;;2077577;28;801;-61
2020/12/01 03:03:53;;;;;;;;;;;13.30;80.20;;;;;;2079402;28;740;-59
2020/12/01 03:05:12;;;;;;;;;;;13.20;80.10;;;;;;2085883;28;751;-59
2020/12/01 03:06:32;;;;;;;;;;;13.30;80.10;;;;;;2089808;28;722;-59
2020/12/01 03:07:51;;;;;;;;;;;13.20;80.00;;;;;;2089950;28;776;-59
2020/12/01 03:09:11;;;;;;;;;;;13.20;80.00;;;;;;2089433;28;720;-60
2020/12/01 03:10:30;;;;;;;;;;;13.20;80.00;;;;;;2077473;28;742;-59
2020/12/01 03:11:49;;;;;;;;;;;13.20;80.70;;;;;;2082930;28;724;-59
2020/12/01 03:13:08;;;;;;;;;;;13.20;80.10;;;;;;2088943;28;721;-58
2020/12/01 03:14:27;;;;;;;;;;;13.20;80.80;;;;;;2089755;28;1968;-60
2020/12/01 03:15:46;;;;;;;;;;;13.20;80.10;;;;;;2089186;28;759;-60
2020/12/01 03:17:05;;;;;;;;;;;13.20;80.10;;;;;;2086077;28;776;-60
2020/12/01 03:18:25;;;;;;;;;;;13.20;80.10;;;;;;2089808;28;736;-60
2020/12/01 03:19:44;;;;;;;;;;;13.20;80.10;;;;;;2081363;28;718;-59
2020/12/01 03:21:03;;;;;;;;;;;13.20;80.20;;;;;;2086189;28;1357;-59
2020/12/01 03:22:22;;;;;;;;;;;13.20;80.10;;;;;;2083431;28;962;-60
2020/12/01 03:23:42;;;;;;;;;;;13.20;80.20;;;;;;2090856;28;958;-60
2020/12/01 03:25:01;;;;;;;;;;;13.20;80.20;;;;;;2090754;28;1227;-59
2020/12/01 03:26:21;;;;;;;;;;;13.20;80.00;;;;;;2087819;28;1290;-60
2020/12/01 03:27:40;;;;;;;;;;;13.20;80.00;;;;;;2077162;28;1191;-60
2020/12/01 03:28:59;;;;;;;;;;;13.20;80.10;;;;;;2085625;28;855;-60
2020/12/01 03:30:18;;;;;;;;;;;13.20;80.20;;;;;;2069319;28;1393;-60
2020/12/01 03:31:37;;;;;;;;;;;13.20;80.90;;;;;;2081161;28;1541;-60
2020/12/01 03:32:56;;;;;;;;;;;13.20;80.20;;;;;;2086761;28;1287;-60
2020/12/01 03:34:16;;;;;;;;;;;13.20;80.20;;;;;;2080125;28;1977;-59
2020/12/01 03:35:35;;;;;;;;;;;13.20;80.20;;;;;;2074585;28;1338;-59
2020/12/01 03:36:55;;;;;;;;;;;13.20;80.20;;;;;;2084273;28;1208;-60
2020/12/01 03:38:14;;;;;;;;;;;13.10;80.00;;;;;;2079271;28;1187;-60
2020/12/01 03:39:33;;;;;;;;;;;13.20;80.30;;;;;;2082001;28;1357;-59
2020/12/01 03:40:52;;;;;;;;;;;13.10;80.10;;;;;;2076455;28;1455;-60
2020/12/01 03:42:12;;;;;;;;;;;13.10;80.10;;;;;;2082054;28;1115;-60
2020/12/01 03:43:31;;;;;;;;;;;13.10;80.20;;;;;;2084783;28;1319;-59
2020/12/01 03:44:50;;;;;;;;;;;13.10;80.10;;;;;;2088538;28;1443;-58
2020/12/01 03:46:09;;;;;;;;;;;13.10;80.00;;;;;;2088055;28;1395;-59
2020/12/01 03:47:28;;;;;;;;;;;13.10;80.10;;;;;;2080133;28;1703;-60
2020/12/01 03:48:47;;;;;;;;;;;13.10;80.10;;;;;;2077015;28;1163;-60
2020/12/01 03:50:07;;;;;;;;;;;13.10;80.80;;;;;;2076633;28;1447;-59
2020/12/01 03:51:26;;;;;;;;;;;13.10;80.80;;;;;;2076792;28;1417;-60
2020/12/01 03:52:45;;;;;;;;;;;13.10;80.00;;;;;;2073511;28;1209;-60
2020/12/01 03:54:04;;;;;;;;;;;13.10;80.00;;;;;;2080710;28;1973;-60
2020/12/01 03:55:24;;;;;;;;;;;13.10;80.10;;;;;;2084775;28;1157;-60
2020/12/01 03:56:43;;;;;;;;;;;13.10;80.10;;;;;;2078926;28;1048;-60
2020/12/01 03:58:02;;;;;;;;;;;13.10;80.20;;;;;;2081084;28;1217;-60
2020/12/01 03:59:23;;;;;;;;;;;13.10;80.20;;;;;;2084664;28;1352;-59
2020/12/01 04:00:42;;;;;;;;;;;13.10;80.00;;;;;;2087123;28;1465;-60
2020/12/01 04:02:01;;;;;;;;;;;13.10;80.00;;;;;;2079590;28;1144;-59
2020/12/01 04:03:20;;;;;;;;;;;13.10;80.00;;;;;;2084857;28;1152;-60
2020/12/01 04:04:40;;;;;;;;;;;13.10;80.00;;;;;;2088516;28;1312;-60
2020/12/01 04:05:59;;;;;;;;;;;13.10;79.90;;;;;;2086955;28;1181;-60
2020/12/01 04:07:18;;;;;;;;;;;13.10;80.60;;;;;;2087480;28;1127;-59
2020/12/01 04:08:38;;;;;;;;;;;13.10;80.10;;;;;;2088190;28;1197;-59
2020/12/01 04:09:57;;;;;;;;;;;13.10;80.00;;;;;;2089143;28;1180;-60
2020/12/01 04:11:16;;;;;;;;;;;13.00;79.90;;;;;;2089343;28;1435;-60
2020/12/01 04:12:35;;;;;;;;;;;13.00;79.80;;;;;;2089212;28;1081;-60
2020/12/01 04:13:55;;;;;;;;;;;13.10;79.80;;;;;;2077577;28;1963;-58
2020/12/01 04:15:14;;;;;;;;;;;13.00;79.70;;;;;;2074939;28;1143;-59
2020/12/01 04:16:34;;;;;;;;;;;13.10;80.00;;;;;;2086687;28;1339;-59
2020/12/01 04:17:53;;;;;;;;;;;13.00;80.00;;;;;;2088902;28;1265;-59
2020/12/01 04:19:12;;;;;;;;;;;13.00;79.70;;;;;;2091150;28;1236;-59
2020/12/01 04:20:32;;;;;;;;;;;13.10;79.90;;;;;;2090311;28;1253;-59
2020/12/01 04:21:51;;;;;;;;;;;13.10;79.90;;;;;;2090082;28;1065;-58
2020/12/01 04:23:10;;;;;;;;;;;13.00;79.70;;;;;;2089336;28;1403;-59
2020/12/01 04:24:29;;;;;;;;;;;13.10;81.40;;;;;;2086965;28;1141;-59
2020/12/01 04:25:48;;;;;;;;;;;13.10;81.60;;;;;;2088583;28;1162;-58
2020/12/01 04:27:08;;;;;;;;;;;13.10;82.30;;;;;;2089653;28;1411;-60
2020/12/01 04:28:27;;;;;;;;;;;13.10;82.60;;;;;;2086773;28;1292;-60
2020/12/01 04:29:46;;;;;;;;;;;13.10;82.30;;;;;;2088692;28;1101;-59
2020/12/01 04:31:07;;;;;;;;;;;13.10;81.70;;;;;;2090220;28;1503;-60
2020/12/01 04:32:26;;;;;;;;;;;13.10;81.60;;;;;;2077458;28;1478;-59
2020/12/01 04:33:45;;;;;;;;;;;13.10;81.80;;;;;;2083415;28;1240;-60
2020/12/01 04:35:05;;;;;;;;;;;13.00;81.90;;;;;;2085566;28;1408;-58
2020/12/01 04:36:24;;;;;;;;;;;13.00;82.10;;;;;;2088662;28;1105;-59
2020/12/01 04:37:43;;;;;;;;;;;13.00;82.20;;;;;;2089283;28;1097;-61
2020/12/01 04:39:02;;;;;;;;;;;13.00;82.00;;;;;;2088376;28;1265;-59
2020/12/01 04:40:23;;;;;;;;;;;13.10;82.10;;;;;;2083684;28;1305;-60
2020/12/01 04:41:42;;;;;;;;;;;13.10;82.70;;;;;;2084244;28;1138;-59
2020/12/01 04:43:25;;;;;;;;;;;13.00;81.80;;;;;;2087848;28;1143;-59
2020/12/01 04:44:54;;;;;;;;;;;13.00;82.00;;;;;;2087983;28;1249;-60
2020/12/01 04:46:14;;;;;;;;;;;13.00;81.80;;;;;;2080912;28;958;-60
2020/12/01 04:47:56;;;;;;;;;;;13.00;81.70;;;;;;2077781;28;1096;-59
2020/12/01 04:49:25;;;;;;;;;;;13.00;81.70;;;;;;2086158;28;1218;-59
2020/12/01 04:50:46;;;;;;;;;;;13.00;81.70;;;;;;2078270;28;1424;-59
2020/12/01 04:52:07;;;;;;;;;;;13.00;81.70;;;;;;2083735;28;1250;-59
2020/12/01 04:53:59;;;;;;;;;;;13.00;81.70;;;;;;2089475;28;1262;-59
2020/12/01 04:55:37;;;;;;;;;;;13.00;81.60;;;;;;2061345;28;1335;-59
2020/12/01 04:56:59;;;;;;;;;;;13.00;81.60;;;;;;2089804;28;882;-59
2020/12/01 04:58:18;;;;;;;;;;;13.00;81.70;;;;;;2087022;28;1237;-59
2020/12/01 04:59:45;;;;;;;;;;;13.00;81.70;;;;;;2090287;28;1088;-60
2020/12/01 05:01:07;;;;;;;;;;;13.00;81.70;;;;;;2080688;28;1504;-58
2020/12/01 05:02:37;;;;;;;;;;;13.00;81.70;;;;;;2087284;28;859;-59
2020/12/01 05:03:57;;;;;;;;;;;13.00;81.60;;;;;;2086864;28;1139;-59
2020/12/01 05:05:19;;;;;;;;;;;13.00;81.50;;;;;;2086548;28;1219;-58
2020/12/01 05:08:35;;;;;;;;;;;12.90;81.40;;;;;;2088050;28;1300;-59
2020/12/01 05:09:56;;;;;;;;;;;12.90;81.30;;;;;;2083522;28;1162;-59
2020/12/01 05:11:19;;;;;;;;;;;12.90;81.20;;;;;;2085820;28;1425;-59
2020/12/01 05:12:39;;;;;;;;;;;12.90;81.20;;;;;;2080588;28;901;-59
2020/12/01 05:14:04;;;;;;;;;;;12.90;82.10;;;;;;2086302;28;1973;-58
2020/12/01 05:15:40;;;;;;;;;;;13.00;81.40;;;;;;2085413;28;1234;-59
2020/12/01 05:17:07;;;;;;;;;;;12.90;81.20;;;;;;2091066;28;1239;-60
2020/12/01 05:18:28;;;;;;;;;;;13.00;81.20;;;;;;2085603;28;1258;-59
2020/12/01 05:19:47;;;;;;;;;;;12.90;81.00;;;;;;2086660;28;1276;-58
2020/12/01 05:21:07;;;;;;;;;;;13.00;81.10;;;;;;2076825;28;1384;-57
2020/12/01 05:22:26;;;;;;;;;;;13.00;81.80;;;;;;2075266;28;1136;-59
2020/12/01 05:23:46;;;;;;;;;;;13.00;82.70;;;;;;2086348;28;1172;-58
2020/12/01 05:25:05;;;;;;;;;;;13.00;83.10;;;;;;2089036;28;1164;-59
2020/12/01 05:26:29;;;;;;;;;;;13.00;82.80;;;;;;2089993;28;1110;-59
2020/12/01 05:27:48;;;;;;;;;;;12.90;82.50;;;;;;2079103;28;1235;-59
2020/12/01 05:29:12;;;;;;;;;;;12.90;82.40;;;;;;2081723;28;1237;-59
2020/12/01 05:30:31;;;;;;;;;;;13.00;82.40;;;;;;2080718;28;1077;-59
2020/12/01 05:31:50;;;;;;;;;;;12.90;82.40;;;;;;2085244;28;1130;-59
2020/12/01 05:33:10;;;;;;;;;;;12.90;82.50;;;;;;2077122;28;1090;-60
2020/12/01 05:34:29;;;;;;;;;;;12.90;82.70;;;;;;2085086;28;1965;-59
2020/12/01 05:36:03;;;;;;;;;;;12.90;82.60;;;;;;2080007;28;1150;-59
2020/12/01 05:37:22;;;;;;;;;;;12.90;83.30;;;;;;2088426;28;1175;-60
2020/12/01 05:38:41;;;;;;;;;;;12.90;83.20;;;;;;2087765;28;1333;-60
2020/12/01 05:40:07;;;;;;;;;;;12.90;82.60;;;;;;2076687;28;1087;-60
2020/12/01 05:41:28;;;;;;;;;;;12.90;82.50;;;;;;2082271;28;1378;-60
2020/12/01 05:42:47;;;;;;;;;;;12.90;82.30;;;;;;2077920;28;1204;-59
2020/12/01 05:44:20;;;;;;;;;;;12.90;82.40;;;;;;2081367;28;1197;-59
2020/12/01 05:45:39;;;;;;;;;;;12.90;82.40;;;;;;2087553;28;1176;-60
2020/12/01 05:47:02;;;;;;;;;;;12.90;82.30;;;;;;2086581;28;1307;-60
2020/12/01 05:48:33;;;;;;;;;;;12.90;82.10;;;;;;2080274;28;1274;-60
2020/12/01 05:50:07;;;;;;;;;;;12.90;82.10;;;;;;2082936;28;1439;-60
2020/12/01 05:51:27;;;;;;;;;;;12.90;82.10;;;;;;2082190;28;1429;-60
2020/12/01 05:52:53;;;;;;;;;;;12.90;82.10;;;;;;2080900;28;950;-59
2020/12/01 05:54:14;;;;;;;;;;;12.90;82.00;;;;;;2073975;28;1898;-60
2020/12/01 05:55:33;;;;;;;;;;;12.90;82.00;;;;;;2071074;28;1237;-60
2020/12/01 05:56:52;;;;;;;;;;;12.90;82.00;;;;;;2070672;28;1262;-60
2020/12/01 05:58:12;;;;;;;;;;;12.90;81.70;;;;;;2070915;28;1100;-59
2020/12/01 05:59:31;;;;;;;;;;;12.90;82.00;;;;;;2078211;28;955;-60
2020/12/01 06:00:57;;;;;;;;;;;12.80;81.60;;;;;;2083429;28;1461;-57
2020/12/01 06:02:17;;;;;;;;;;;12.90;81.80;;;;;;2083708;28;1245;-60
2020/12/01 06:03:55;;;;;;;;;;;12.90;81.70;;;;;;2066687;28;1513;-59
2020/12/01 06:05:16;;;;;;;;;;;12.90;81.80;;;;;;2081586;28;1294;-59
2020/12/01 06:06:55;;;;;;;;;;;12.90;81.70;;;;;;2078744;28;1211;-59
2020/12/01 06:08:35;;;;;;;;;;;12.80;81.50;;;;;;2079928;28;1422;-60
2020/12/01 06:10:03;;;;;;;;;;;12.90;81.70;;;;;;2075418;28;913;-61
2020/12/01 06:11:33;;;;;;;;;;;12.80;81.50;;;;;;2085604;28;1499;-59
2020/12/01 06:13:04;;;;;;;;;;;12.80;81.30;;;;;;2089235;28;1499;-60
2020/12/01 06:14:24;;;;;;;;;;;12.80;81.30;;;;;;2087600;28;1975;-60
2020/12/01 06:15:50;;;;;;;;;;;12.80;81.30;;;;;;2080037;28;1309;-61
2020/12/01 06:17:16;;;;;;;;;;;12.90;81.40;;;;;;2085150;28;1165;-59
2020/12/01 06:18:41;;;;;;;;;;;12.90;82.90;;;;;;2086517;28;1426;-60
2020/12/01 06:20:02;;;;;;;;;;;12.90;83.30;;;;;;2088373;28;1201;-59
2020/12/01 06:21:47;;;;;;;;;;;12.90;84.10;;;;;;2080398;28;1424;-60
2020/12/01 06:23:24;;;;;;;;;;;12.90;84.20;;;;;;2089730;28;1308;-60
2020/12/01 06:25:07;;;;;;;;;;;12.90;83.50;;;;;;2088092;28;1318;-60
2020/12/01 06:26:47;;;;;;;;;;;12.90;83.60;;;;;;2072620;28;1356;-59
2020/12/01 06:28:25;;;;;;;;;;;12.80;83.60;;;;;;2089019;28;1114;-60
2020/12/01 06:29:48;;;;;;;;;;;12.80;83.50;;;;;;2089316;28;1509;-60
2020/12/01 06:31:14;;;;;;;;;;;12.90;83.80;;;;;;2088373;28;1507;-60
2020/12/01 06:32:36;;;;;;;;;;;12.80;83.80;;;;;;2089496;28;1301;-60
2020/12/01 06:34:01;;;;;;;;;;;12.80;83.60;;;;;;2077709;28;1417;-59
2020/12/01 06:35:35;;;;;;;;;;;12.80;83.70;;;;;;2086750;28;1135;-60
2020/12/01 06:37:09;;;;;;;;;;;12.80;83.60;;;;;;2089268;28;859;-59
2020/12/01 06:38:48;;;;;;;;;;;12.80;83.60;;;;;;2086916;28;1147;-59
2020/12/01 06:40:19;;;;;;;;;;;12.80;83.60;;;;;;2089277;28;1246;-60
2020/12/01 06:41:40;;;;;;;;;;;12.80;84.20;;;;;;2088009;28;1500;-60
2020/12/01 06:43:04;;;;;;;;;;;12.80;83.50;;;;;;2080917;28;1362;-60
2020/12/01 06:44:24;;;;;;;;;;;12.80;83.90;;;;;;2084318;28;1205;-60
2020/12/01 06:45:45;;;;;;;;;;;12.80;83.20;;;;;;2077829;28;1521;-59
2020/12/01 06:47:04;;;;;;;;;;;12.80;83.30;;;;;;2080657;28;1211;-61
2020/12/01 06:48:24;;;;;;;;;;;12.80;83.20;;;;;;2081090;28;1264;-60
2020/12/01 06:49:43;;;;;;;;;;;12.80;83.10;;;;;;2076805;28;1282;-60
2020/12/01 06:51:03;;;;;;;;;;;12.80;83.10;;;;;;2072385;28;1355;-60
2020/12/01 06:52:22;;;;;;;;;;;12.80;83.20;;;;;;2070108;28;1489;-59
2020/12/01 06:53:41;;;;;;;;;;;12.80;83.80;;;;;;2075377;28;1259;-60
2020/12/01 06:55:00;;;;;;;;;;;12.80;82.90;;;;;;2081035;28;1404;-60
2020/12/01 06:56:19;;;;;;;;;;;12.80;82.80;;;;;;2081573;28;1099;-61
2020/12/01 06:57:39;;;;;;;;;;;12.80;82.90;;;;;;2083230;28;1436;-59
2020/12/01 06:59:03;;;;;;;;;;;12.80;83.00;;;;;;2085977;28;1162;-59
2020/12/01 07:00:25;;;;;;;;;;;12.80;82.80;;;;;;2086043;28;1257;-59
2020/12/01 07:01:44;;;;;;;;;;;12.80;82.90;;;;;;2078040;28;1281;-59
2020/12/01 07:03:07;;;;;;;;;;;12.80;82.90;;;;;;2082656;28;1274;-58
2020/12/01 07:04:27;;;;;;;;;;;12.80;83.60;;;;;;2076307;28;1172;-59
2020/12/01 07:05:46;;;;;;;;;;;12.80;82.90;;;;;;2073610;28;1195;-59
2020/12/01 07:07:14;;;;;;;;;;;12.70;82.60;;;;;;2082472;28;1314;-58
2020/12/01 07:08:33;;;;;;;;;;;12.80;82.80;;;;;;2081439;28;1255;-59
2020/12/01 07:09:53;;;;;;;;;;;12.70;82.60;;;;;;2082236;28;1167;-60
2020/12/01 07:11:13;;;;;;;;;;;12.70;82.30;;;;;;2088129;28;1500;-59
2020/12/01 07:12:36;;;;;;;;;;;12.80;82.50;;;;;;2081110;28;629;-59
2020/12/01 07:14:13;;;;;;;;;;;12.80;82.60;;;;;;2075305;28;719;-58
2020/12/01 07:15:36;;;;;;;;;;;12.70;82.30;;;;;;2080424;28;740;-59
2020/12/01 07:16:55;;;;;;;;;;;12.70;82.20;;;;;;2076126;28;738;-59
2020/12/01 07:18:22;;;;;;;;;;;12.80;82.60;;;;;;2083020;28;717;-59
2020/12/01 07:19:42;;;;;;;;;;;12.70;82.20;;;;;;2087240;28;713;-58
2020/12/01 07:21:20;;;;;;;;;;;12.70;82.30;;;;;;2078344;28;1321;-59
2020/12/01 07:22:39;;;;;;;;;;;12.70;82.10;;;;;;2089268;28;785;-59
2020/12/01 07:24:14;;;;;;;;;;;12.70;82.20;;;;;;2087540;28;2238;-59
2020/12/01 07:25:42;;;;;;;;;;;12.80;82.20;;;;;;2082776;28;1257;-58
2020/12/01 07:27:06;;;;;;;;;;;12.70;82.00;;;;;;2082900;28;1605;-58
2020/12/01 07:28:28;;;;;;;;;;;12.80;82.90;;;;;;2080747;28;758;-59
2020/12/01 07:29:48;;;;;;;;;;;12.80;82.20;;;;;;2081327;28;802;-59
2020/12/01 07:31:18;;;;;;;;;;;12.70;81.90;;;;;;2065620;28;1281;-59
2020/12/01 07:32:50;;;;;;;;;;;12.70;82.10;;;;;;2072453;28;752;-58
2020/12/01 07:34:25;;;;;;;;;;;12.70;81.80;;;;;;2072472;28;1968;-59
2020/12/01 07:35:46;;;;;;;;;;;12.70;81.80;;;;;;2085314;28;716;-59
2020/12/01 07:37:17;;;;;;;;;;;12.70;82.00;;;;;;2084430;28;894;-58
2020/12/01 07:38:38;;;;;;;;;;;12.70;81.90;;;;;;2085447;28;1240;-59
2020/12/01 07:39:59;;;;;;;;;;;12.70;81.90;;;;;;2067806;28;751;-59
2020/12/01 07:41:23;;;;;;;;;;;12.70;81.90;;;;;;2074653;28;1361;-58
2020/12/01 07:42:42;;;;;;;;;;;12.70;81.80;;;;;;2073245;28;951;-59
2020/12/01 07:44:03;;;;;;;;;;;12.70;81.90;;;;;;2077193;28;650;-58
2020/12/01 07:45:23;;;;;;;;;;;12.70;82.00;;;;;;2081110;28;694;-59
2020/12/01 07:48:17;;;;;;;;;;;12.70;81.90;;;;;;2081554;28;724;-58
2020/12/01 07:49:36;;;;;;;;;;;12.70;81.90;;;;;;2073227;28;706;-59
2020/12/01 07:51:02;;;;;;;;;;;12.70;81.80;;;;;;2068999;28;1255;-59
2020/12/01 07:52:23;;;;;;;;;;;12.70;81.80;;;;;;2076404;28;768;-59
2020/12/01 07:53:42;;;;;;;;;;;12.70;81.80;;;;;;2068639;28;949;-59
2020/12/01 07:55:06;;;;;;;;;;;12.70;81.80;;;;;;2077779;28;1088;-58
2020/12/01 07:56:27;;;;;;;;;;;12.70;81.70;;;;;;2081201;28;705;-59
2020/12/01 07:58:06;;;;;;;;;;;12.70;82.30;;;;;;2081548;28;705;-59
2020/12/01 07:59:25;;;;;;;;;;;12.70;81.80;;;;;;2080280;28;792;-58
2020/12/01 08:00:51;;;;;;;;;;;12.70;81.50;;;;;;2078050;28;1441;-60
2020/12/01 08:02:10;;;;;;;;;;;12.70;81.60;;;;;;2078748;28;746;-60
2020/12/01 08:03:33;;;;;;;;;;;12.70;82.20;;;;;;2080422;28;678;-59
2020/12/01 08:05:02;;;;;;;;;;;12.70;81.50;;;;;;2073129;28;649;-59
2020/12/01 08:06:21;;;;;;;;;;;12.70;81.60;;;;;;2079198;28;601;-59
2020/12/01 08:07:40;;;;;;;;;;;12.70;82.40;;;;;;2081369;28;725;-60
2020/12/01 08:09:01;;;;;;;;;;;12.60;81.50;;;;;;2073193;28;763;-58
2020/12/01 08:10:20;;;;;;;;;;;12.60;81.30;;;;;;2078116;28;707;-58